Time;durP1;ratioP1;P1;durP2;ratioP2;P2;SDS_P1;SDS_P2;PMS_P1;PMS_P2;Temp;Humidity;BMP_temperature;BMP_pressure;BME280_temperature;BME280_humidity;BME280_pressure;Samples;Min_cycle;Max_cycle;Signal;HPM_P1;HPM_P2
2020/12/05 00:03:41;;;;;;;21.33;9.40;;;4.00;99.90;;;;;;12517769;28;20140;-37
2020/12/05 00:09:42;;;;;;;15.20;8.75;;;3.80;99.90;;;;;;12504941;28;20164;-37
2020/12/05 00:15:44;;;;;;;16.77;9.48;;;3.70;99.90;;;;;;12486399;28;20163;-38
2020/12/05 00:21:45;;;;;;;17.10;9.50;;;3.60;99.90;;;;;;12510345;28;20079;-38
2020/12/05 00:27:47;;;;;;;18.35;9.07;;;3.60;99.90;;;;;;12514104;28;20170;-38
2020/12/05 00:33:50;;;;;;;17.90;9.68;;;3.60;99.90;;;;;;12512399;28;20493;-37
2020/12/05 00:39:51;;;;;;;17.90;9.65;;;3.50;99.90;;;;;;12517897;28;20083;-37
2020/12/05 00:45:52;;;;;;;14.73;8.43;;;3.50;99.90;;;;;;12504965;28;20077;-38
2020/12/05 00:51:54;;;;;;;14.45;8.43;;;3.60;99.90;;;;;;12496579;28;20099;-38
2020/12/05 00:57:55;;;;;;;15.80;8.90;;;3.50;99.90;;;;;;12503840;28;20147;-37
2020/12/05 01:03:57;;;;;;;16.77;8.77;;;3.50;99.90;;;;;;12506868;28;21445;-37
2020/12/05 01:09:58;;;;;;;16.35;9.05;;;3.50;99.90;;;;;;12516171;28;20150;-37
2020/12/05 01:15:59;;;;;;;16.13;8.23;;;3.50;99.90;;;;;;12515297;28;20139;-37
2020/12/05 01:22:00;;;;;;;15.70;8.75;;;3.60;99.90;;;;;;12522459;28;20064;-38
2020/12/05 01:28:02;;;;;;;15.13;8.25;;;3.60;99.90;;;;;;12511483;28;20057;-38
2020/12/05 01:34:03;;;;;;;15.02;8.55;;;3.50;99.90;;;;;;12500570;28;20123;-37
2020/12/05 01:40:05;;;;;;;15.75;8.63;;;3.50;99.90;;;;;;12496534;28;20072;-37
2020/12/05 01:46:19;;;;;;;14.40;8.70;;;3.60;99.90;;;;;;12507733;28;20072;-37
2020/12/05 01:52:21;;;;;;;16.85;8.77;;;3.60;99.90;;;;;;12521892;28;20493;-37
2020/12/05 01:58:22;;;;;;;14.63;8.48;;;3.50;99.90;;;;;;12497950;28;20515;-37
2020/12/05 02:04:28;;;;;;;17.58;8.63;;;3.50;99.90;;;;;;12518796;28;20056;-37
2020/12/05 02:10:39;;;;;;;14.88;7.80;;;3.60;99.90;;;;;;12519463;28;20540;-38
2020/12/05 02:16:41;;;;;;;13.98;7.95;;;3.70;99.90;;;;;;12522258;28;20087;-37
2020/12/05 02:22:45;;;;;;;14.38;8.10;;;3.90;99.90;;;;;;12520126;28;20069;-38
2020/12/05 02:28:46;;;;;;;16.92;8.48;;;3.70;99.90;;;;;;12508336;28;20483;-38
2020/12/05 02:34:48;;;;;;;14.38;7.80;;;3.70;99.90;;;;;;12513686;28;20048;-37
2020/12/05 02:40:50;;;;;;;13.20;7.43;;;3.70;99.90;;;;;;12525686;28;20057;-37
2020/12/05 02:46:54;;;;;;;15.48;8.57;;;3.70;99.90;;;;;;12510695;28;20602;-38
2020/12/05 02:52:56;;;;;;;16.60;8.37;;;3.60;99.90;;;;;;12519795;28;20084;-37
2020/12/05 02:58:57;;;;;;;15.75;8.00;;;3.60;99.90;;;;;;12513845;28;21358;-37
2020/12/05 03:04:58;;;;;;;14.50;8.50;;;3.60;99.90;;;;;;12518513;28;20133;-37
2020/12/05 03:11:00;;;;;;;13.85;8.68;;;3.80;99.90;;;;;;12534271;28;20052;-38
2020/12/05 03:17:01;;;;;;;14.63;8.18;;;3.90;99.90;;;;;;12521459;28;20100;-37
2020/12/05 03:23:02;;;;;;;15.63;8.73;;;3.90;99.90;;;;;;12511158;28;20172;-37
2020/12/05 03:29:04;;;;;;;16.13;8.40;;;4.00;99.90;;;;;;12523616;28;20130;-37
2020/12/05 03:35:05;;;;;;;17.40;8.75;;;4.00;99.90;;;;;;12529810;28;20127;-39
2020/12/05 03:41:06;;;;;;;16.67;9.25;;;3.70;99.90;;;;;;12510151;28;20079;-37
2020/12/05 03:47:08;;;;;;;17.90;9.77;;;3.60;99.90;;;;;;12509621;28;20467;-37
2020/12/05 03:53:09;;;;;;;16.98;9.45;;;3.60;99.90;;;;;;12514658;28;21182;-38
2020/12/05 03:59:10;;;;;;;16.52;9.32;;;3.50;99.90;;;;;;12516180;28;20076;-37
2020/12/05 04:05:12;;;;;;;19.40;9.98;;;3.50;99.90;;;;;;12511727;28;20131;-38
2020/12/05 04:11:13;;;;;;;16.02;8.95;;;3.50;99.90;;;;;;12518821;28;20046;-37
2020/12/05 04:17:15;;;;;;;17.40;10.10;;;3.60;99.90;;;;;;12516462;28;20083;-38
2020/12/05 04:23:16;;;;;;;20.65;10.73;;;3.50;99.90;;;;;;12515829;28;20049;-38
2020/12/05 04:29:18;;;;;;;19.35;10.60;;;3.40;99.90;;;;;;12511042;28;20075;-38
2020/12/05 04:35:20;;;;;;;22.52;11.05;;;3.30;99.90;;;;;;12517215;28;20519;-39
2020/12/05 04:41:21;;;;;;;21.77;12.02;;;3.20;99.90;;;;;;12497455;28;20048;-38
2020/12/05 04:47:25;;;;;;;20.65;11.90;;;3.10;99.90;;;;;;12515512;28;20091;-38
2020/12/05 04:53:27;;;;;;;21.80;12.40;;;3.10;99.90;;;;;;12515706;28;20055;-39
2020/12/05 04:59:30;;;;;;;24.50;13.50;;;3.00;99.90;;;;;;12498209;28;20290;-38
2020/12/05 05:05:31;;;;;;;25.13;13.38;;;3.00;99.90;;;;;;12499424;28;20491;-38
2020/12/05 05:11:35;;;;;;;22.17;13.00;;;3.00;99.90;;;;;;12522910;28;20076;-38
2020/12/05 05:17:48;;;;;;;22.67;12.33;;;3.00;99.90;;;;;;12518653;28;20175;-38
2020/12/05 05:23:50;;;;;;;23.10;12.23;;;3.20;99.90;;;;;;12511967;28;20342;-38
2020/12/05 05:29:51;;;;;;;21.35;12.60;;;3.20;99.90;;;;;;12488964;28;20159;-38
2020/12/05 05:35:53;;;;;;;21.40;12.73;;;3.20;99.90;;;;;;12487675;28;21012;-38
2020/12/05 05:41:55;;;;;;;24.63;14.00;;;3.30;99.90;;;;;;12510911;28;20072;-38
2020/12/05 05:48:02;;;;;;;28.05;15.32;;;3.10;99.90;;;;;;12495609;28;20048;-38
2020/12/05 05:54:25;;;;;;;27.73;15.70;;;3.00;99.90;;;;;;12515881;28;20412;-39
2020/12/05 06:00:29;;;;;;;33.42;16.30;;;2.80;99.90;;;;;;12494440;28;20102;-38
2020/12/05 06:06:33;;;;;;;30.67;16.98;;;2.70;99.90;;;;;;12518374;28;20081;-38
2020/12/05 06:12:35;;;;;;;31.48;16.65;;;2.70;99.90;;;;;;12509098;28;20084;-38
2020/12/05 06:18:37;;;;;;;33.30;17.13;;;2.70;99.90;;;;;;12521162;28;20060;-38
2020/12/05 06:24:49;;;;;;;30.85;16.27;;;2.60;99.90;;;;;;12518340;28;20047;-39
2020/12/05 06:30:52;;;;;;;29.77;16.00;;;2.70;99.90;;;;;;12504521;28;20145;-38
2020/12/05 06:36:53;;;;;;;30.15;15.45;;;2.70;99.90;;;;;;12528229;28;20091;-38
2020/12/05 06:42:56;;;;;;;29.17;15.68;;;2.70;99.90;;;;;;12493556;28;20068;-38
2020/12/05 06:48:57;;;;;;;37.03;17.23;;;2.70;99.90;;;;;;12514071;28;20057;-38
2020/12/05 06:55:09;;;;;;;35.25;17.73;;;2.70;99.90;;;;;;12506046;28;20172;-38
2020/12/05 07:01:27;;;;;;;38.00;18.58;;;2.70;99.90;;;;;;12507625;28;20135;-40
2020/12/05 07:07:30;;;;;;;36.60;18.55;;;2.60;99.90;;;;;;12524825;28;20063;-38
2020/12/05 07:13:41;;;;;;;35.70;18.77;;;2.60;99.90;;;;;;12520028;28;20559;-38
2020/12/05 07:19:43;;;;;;;37.55;17.90;;;2.60;99.90;;;;;;12526234;28;20049;-38
2020/12/05 07:25:44;;;;;;;35.60;17.92;;;2.70;99.90;;;;;;12511654;28;20056;-39
2020/12/05 07:31:47;;;;;;;37.35;18.73;;;2.70;99.90;;;;;;12500380;28;20135;-38
2020/12/05 07:37:48;;;;;;;35.50;17.55;;;2.70;99.90;;;;;;12499402;28;20049;-38
2020/12/05 07:43:55;;;;;;;44.67;19.48;;;2.80;99.90;;;;;;12511100;28;20053;-38
2020/12/05 07:49:57;;;;;;;50.45;21.48;;;2.80;99.90;;;;;;12512416;28;20504;-39
2020/12/05 07:56:17;;;;;;;45.08;23.35;;;2.80;99.90;;;;;;12504978;28;20755;-38
2020/12/05 08:03:00;;;;;;;53.70;23.45;;;2.80;99.90;;;;;;12494384;28;20142;-38
2020/12/05 08:09:04;;;;;;;45.28;22.80;;;2.80;99.90;;;;;;12511284;28;20059;-38
2020/12/05 08:15:06;;;;;;;49.38;24.15;;;2.90;99.90;;;;;;12510992;28;20136;-38
2020/12/05 08:21:07;;;;;;;52.20;23.90;;;2.90;99.90;;;;;;12500463;28;20063;-38
2020/12/05 08:27:09;;;;;;;49.55;24.17;;;3.10;99.90;;;;;;12506197;28;20072;-38
2020/12/05 08:33:12;;;;;;;48.60;22.77;;;3.10;99.90;;;;;;12511801;28;20044;-39
2020/12/05 08:39:15;;;;;;;48.15;23.30;;;3.20;99.90;;;;;;12501888;28;20124;-40
2020/12/05 08:45:19;;;;;;;47.75;21.48;;;3.30;99.90;;;;;;12507551;28;20059;-34
2020/12/05 08:51:29;;;;;;;37.42;21.02;;;3.40;99.90;;;;;;12511126;28;20627;-34
2020/12/05 08:57:30;;;;;;;40.60;20.23;;;3.60;99.90;;;;;;12507104;28;20079;-34
2020/12/05 09:03:37;;;;;;;31.65;17.98;;;3.60;99.90;;;;;;12510953;28;20778;-34
2020/12/05 09:09:46;;;;;;;39.85;20.60;;;3.70;99.90;;;;;;12520821;28;20136;-34
2020/12/05 09:15:56;;;;;;;38.17;18.80;;;3.70;99.90;;;;;;12518879;28;20497;-34
2020/12/05 09:21:58;;;;;;;31.25;17.52;;;3.80;99.90;;;;;;12514484;28;20086;-34
2020/12/05 09:28:01;;;;;;;31.52;17.48;;;3.80;99.90;;;;;;12521463;28;20544;-34
2020/12/05 09:34:02;;;;;;;32.15;16.58;;;3.80;99.90;;;;;;12526243;28;20041;-34
2020/12/05 09:40:08;;;;;;;26.35;16.17;;;3.80;99.90;;;;;;12524627;28;20072;-34
2020/12/05 09:46:09;;;;;;;28.35;17.00;;;3.90;99.90;;;;;;12517399;28;20140;-34
2020/12/05 09:52:10;;;;;;;30.40;15.98;;;4.10;99.90;;;;;;12518696;28;20072;-34
2020/12/05 09:58:12;;;;;;;22.63;14.50;;;4.50;99.90;;;;;;12498609;28;20080;-34
2020/12/05 10:04:16;;;;;;;22.35;13.15;;;4.60;99.90;;;;;;12509880;28;20140;-34
2020/12/05 10:10:18;;;;;;;20.70;12.25;;;4.70;99.90;;;;;;12517202;28;20097;-34
2020/12/05 10:16:19;;;;;;;18.33;12.00;;;4.80;99.90;;;;;;12513731;28;20060;-35
2020/12/05 10:22:20;;;;;;;16.13;10.75;;;4.90;99.90;;;;;;12502625;28;20155;-34
2020/12/05 10:28:22;;;;;;;16.48;10.43;;;4.90;99.90;;;;;;12507223;28;20044;-34
2020/12/05 10:34:24;;;;;;;16.05;10.52;;;5.00;99.90;;;;;;12506274;28;20120;-34
2020/12/05 10:40:25;;;;;;;17.98;10.07;;;5.00;99.90;;;;;;12507216;28;20049;-35
2020/12/05 10:46:27;;;;;;;13.90;9.73;;;5.00;99.90;;;;;;12501298;28;20056;-34
2020/12/05 10:52:28;;;;;;;16.98;10.48;;;5.00;99.90;;;;;;12511507;28;20080;-34
2020/12/05 10:58:29;;;;;;;14.35;9.80;;;5.10;99.90;;;;;;12515458;28;20063;-34
2020/12/05 11:04:31;;;;;;;15.15;10.38;;;5.40;99.90;;;;;;12523509;28;20170;-34
2020/12/05 11:10:32;;;;;;;13.65;9.75;;;5.40;99.90;;;;;;12519064;28;20044;-34
2020/12/05 11:16:34;;;;;;;17.90;10.45;;;5.40;99.90;;;;;;12514987;28;20237;-34
2020/12/05 11:22:36;;;;;;;16.42;10.52;;;5.30;99.90;;;;;;12488359;28;20473;-34
2020/12/05 11:28:37;;;;;;;17.17;11.20;;;5.40;99.90;;;;;;12506910;28;20053;-34
2020/12/05 11:34:38;;;;;;;15.40;10.40;;;5.30;99.90;;;;;;12522480;28;20397;-34
2020/12/05 11:40:40;;;;;;;18.25;11.55;;;5.40;99.90;;;;;;12501646;28;20091;-34
2020/12/05 11:46:41;;;;;;;16.73;11.02;;;5.30;99.90;;;;;;12514076;28;20670;-34
2020/12/05 11:52:44;;;;;;;18.50;11.07;;;5.30;99.90;;;;;;12507085;28;20512;-34
2020/12/05 11:58:45;;;;;;;15.10;10.18;;;5.30;99.90;;;;;;12505702;28;20396;-34
2020/12/05 12:04:46;;;;;;;15.45;10.73;;;5.40;99.90;;;;;;12512992;28;20049;-34
2020/12/05 12:10:48;;;;;;;15.65;10.27;;;5.50;99.90;;;;;;12521904;28;20461;-34
2020/12/05 12:16:49;;;;;;;17.83;12.27;;;5.40;99.90;;;;;;12519874;28;20060;-34
2020/12/05 12:22:50;;;;;;;15.85;10.90;;;5.40;99.90;;;;;;12500752;28;20087;-34
2020/12/05 12:28:52;;;;;;;15.95;11.48;;;5.50;99.90;;;;;;12508580;28;20081;-34
2020/12/05 12:34:53;;;;;;;12.90;8.98;;;5.50;99.90;;;;;;12511501;28;20048;-34
2020/12/05 12:40:55;;;;;;;14.45;9.32;;;5.60;99.90;;;;;;12519799;28;20049;-34
2020/12/05 12:47:11;;;;;;;13.82;8.40;;;5.70;99.90;;;;;;12512997;28;20048;-34
2020/12/05 12:53:12;;;;;;;12.63;8.20;;;5.40;99.90;;;;;;12513312;28;20064;-34
2020/12/05 12:59:14;;;;;;;10.25;6.95;;;5.40;99.90;;;;;;12511691;28;20518;-34
2020/12/05 13:05:15;;;;;;;10.73;7.40;;;5.40;99.90;;;;;;12511179;28;20048;-34
2020/12/05 13:11:16;;;;;;;10.70;7.20;;;5.40;99.90;;;;;;12529274;28;20527;-34
2020/12/05 13:17:18;;;;;;;10.55;6.30;;;5.40;99.90;;;;;;12512559;28;20521;-34
2020/12/05 13:23:19;;;;;;;9.40;6.63;;;5.40;99.90;;;;;;12511029;28;20071;-34
2020/12/05 13:29:21;;;;;;;10.10;6.40;;;5.40;99.90;;;;;;12487681;28;20127;-33
2020/12/05 13:35:23;;;;;;;9.70;5.70;;;5.30;99.90;;;;;;12519040;28;20076;-34
2020/12/05 13:41:26;;;;;;;9.07;5.80;;;5.30;99.90;;;;;;12507059;28;20056;-34
2020/12/05 13:47:28;;;;;;;9.40;5.63;;;5.20;99.90;;;;;;12498082;28;20384;-33
2020/12/05 13:53:29;;;;;;;9.93;6.32;;;5.10;99.90;;;;;;12514242;28;20053;-33
2020/12/05 13:59:31;;;;;;;9.63;6.10;;;5.10;99.90;;;;;;12496950;28;20373;-33
2020/12/05 14:05:32;;;;;;;15.75;9.25;;;5.10;99.90;;;;;;12522107;28;20084;-34
2020/12/05 14:11:34;;;;;;;14.50;9.40;;;5.10;99.90;;;;;;12524917;28;20544;-33
2020/12/05 14:17:36;;;;;;;9.32;5.80;;;4.90;99.90;;;;;;12519717;28;20106;-33
2020/12/05 14:23:37;;;;;;;8.38;5.57;;;4.90;99.90;;;;;;12498034;28;20493;-33
2020/12/05 14:29:38;;;;;;;8.02;5.68;;;5.00;99.90;;;;;;12499543;28;20049;-33
2020/12/05 14:35:40;;;;;;;9.95;6.70;;;5.00;99.90;;;;;;12499864;28;20183;-33
2020/12/05 14:41:46;;;;;;;11.85;7.85;;;4.90;99.90;;;;;;12518756;28;20068;-33
2020/12/05 14:47:47;;;;;;;23.08;15.18;;;4.70;99.90;;;;;;12521027;28;20090;-33
2020/12/05 14:53:49;;;;;;;15.18;10.85;;;4.40;99.90;;;;;;12521900;28;20076;-33
2020/12/05 14:59:51;;;;;;;17.10;11.45;;;4.20;99.90;;;;;;12510140;28;20065;-33
2020/12/05 15:05:52;;;;;;;16.63;10.38;;;4.00;99.90;;;;;;12519398;28;20068;-33
2020/12/05 15:11:54;;;;;;;18.40;11.70;;;3.90;99.90;;;;;;12520720;28;20064;-33
2020/12/05 15:17:55;;;;;;;16.08;11.80;;;3.70;99.90;;;;;;12524304;28;20085;-33
2020/12/05 15:23:57;;;;;;;26.73;16.85;;;3.60;99.90;;;;;;12505555;28;20469;-33
2020/12/05 15:29:58;;;;;;;19.60;12.73;;;3.40;99.90;;;;;;12493021;28;20048;-33
2020/12/05 15:36:02;;;;;;;19.50;11.90;;;3.30;99.90;;;;;;12492773;28;20084;-33
2020/12/05 15:42:04;;;;;;;24.40;16.33;;;3.20;99.90;;;;;;12503489;28;20061;-33
2020/12/05 15:48:05;;;;;;;21.63;13.68;;;3.10;99.90;;;;;;12489759;28;20045;-33
2020/12/05 15:54:06;;;;;;;21.63;14.25;;;2.90;99.90;;;;;;12520406;28;20080;-33
2020/12/05 16:00:08;;;;;;;20.58;12.57;;;2.80;99.90;;;;;;12501104;28;20077;-33
2020/12/05 16:06:15;;;;;;;19.77;12.85;;;2.80;99.90;;;;;;12520804;28;20068;-33
2020/12/05 16:12:17;;;;;;;23.10;14.55;;;2.70;99.90;;;;;;12521404;28;20056;-33
2020/12/05 16:18:18;;;;;;;23.38;14.45;;;2.70;99.90;;;;;;12505587;28;20065;-33
2020/12/05 16:24:20;;;;;;;22.95;14.23;;;2.70;99.90;;;;;;12509098;28;20091;-33
2020/12/05 16:30:21;;;;;;;23.60;13.18;;;2.70;99.90;;;;;;12509297;28;20048;-33
2020/12/05 16:36:23;;;;;;;23.85;14.40;;;2.60;99.90;;;;;;12500170;28;20084;-33
2020/12/05 16:42:30;;;;;;;22.33;13.57;;;2.60;99.90;;;;;;12498903;28;20053;-33
2020/12/05 16:48:31;;;;;;;27.42;16.80;;;2.60;99.90;;;;;;12508450;28;20077;-33
2020/12/05 16:54:32;;;;;;;25.48;14.68;;;2.60;99.90;;;;;;12501845;28;20079;-33
2020/12/05 17:00:34;;;;;;;21.05;13.27;;;2.50;99.90;;;;;;12506856;28;20083;-34
2020/12/05 17:06:35;;;;;;;24.38;14.00;;;2.40;99.90;;;;;;12512130;28;20152;-33
2020/12/05 17:12:36;;;;;;;23.23;13.65;;;2.30;99.90;;;;;;12514800;28;20461;-33
2020/12/05 17:18:38;;;;;;;23.25;14.55;;;2.40;99.90;;;;;;12505080;28;20144;-33
2020/12/05 17:24:39;;;;;;;24.95;14.95;;;2.40;99.90;;;;;;12519108;28;20433;-33
2020/12/05 17:30:41;;;;;;;21.90;14.00;;;2.60;99.90;;;;;;12494884;28;20107;-33
2020/12/05 17:36:42;;;;;;;21.05;13.15;;;2.70;99.90;;;;;;12522011;28;20131;-33
2020/12/05 17:42:43;;;;;;;20.60;12.77;;;2.70;99.90;;;;;;12508627;28;20132;-33
2020/12/05 17:48:45;;;;;;;21.73;13.45;;;2.80;99.90;;;;;;12514210;28;20084;-33
2020/12/05 17:54:46;;;;;;;21.33;13.82;;;2.80;99.90;;;;;;12524512;28;20527;-33
2020/12/05 18:00:48;;;;;;;25.52;15.70;;;2.80;99.90;;;;;;12510500;28;20056;-33
2020/12/05 18:06:51;;;;;;;21.75;13.60;;;2.70;99.90;;;;;;12519113;28;20430;-33
2020/12/05 18:12:52;;;;;;;24.80;13.13;;;2.80;99.90;;;;;;12526450;28;20782;-33
2020/12/05 18:18:54;;;;;;;24.67;14.65;;;2.90;99.90;;;;;;12505373;28;20096;-33
2020/12/05 18:24:55;;;;;;;23.77;14.82;;;2.80;99.90;;;;;;12521141;28;20052;-33
2020/12/05 18:30:56;;;;;;;23.80;14.60;;;2.80;99.90;;;;;;12498480;28;20087;-33
2020/12/05 18:36:59;;;;;;;22.27;13.93;;;2.90;99.90;;;;;;12519834;28;20140;-33
2020/12/05 18:43:00;;;;;;;23.10;13.77;;;2.90;99.90;;;;;;12491182;28;20148;-33
2020/12/05 18:49:02;;;;;;;22.15;13.13;;;2.80;99.90;;;;;;12517907;28;21414;-33
2020/12/05 18:55:03;;;;;;;20.52;12.05;;;2.80;99.90;;;;;;12518871;28;20055;-33
2020/12/05 19:01:06;;;;;;;19.20;12.18;;;2.80;99.90;;;;;;12504319;28;20328;-33
2020/12/05 19:07:07;;;;;;;55.35;29.63;;;2.80;99.90;;;;;;12503427;28;20044;-33
2020/12/05 19:13:08;;;;;;;52.28;27.45;;;2.80;99.90;;;;;;12517765;28;20057;-33
2020/12/05 19:19:10;;;;;;;73.18;38.72;;;2.70;99.90;;;;;;12508683;28;20403;-33
2020/12/05 19:25:12;;;;;;;54.88;30.30;;;2.80;99.90;;;;;;12514823;28;20132;-33
2020/12/05 19:31:13;;;;;;;27.55;16.45;;;2.60;99.90;;;;;;12510204;28;20055;-33
2020/12/05 19:37:14;;;;;;;23.50;14.52;;;2.40;99.90;;;;;;12515204;28;20645;-33
2020/12/05 19:43:15;;;;;;;26.63;15.93;;;2.30;99.90;;;;;;12499972;28;20072;-33
2020/12/05 19:49:17;;;;;;;24.63;15.57;;;2.30;99.90;;;;;;12505181;28;20459;-33
2020/12/05 19:55:18;;;;;;;25.35;16.10;;;2.30;99.90;;;;;;12494808;28;20088;-33
2020/12/05 20:01:19;;;;;;;25.38;15.45;;;2.20;99.90;;;;;;12495204;28;20072;-33
2020/12/05 20:07:25;;;;;;;32.97;21.30;;;2.10;99.90;;;;;;12531538;28;20080;-33
2020/12/05 20:13:26;;;;;;;26.27;16.17;;;2.10;99.90;;;;;;12525996;28;20581;-33
2020/12/05 20:19:27;;;;;;;29.10;18.20;;;1.80;99.90;;;;;;12503042;28;20077;-33
2020/12/05 20:25:29;;;;;;;31.98;18.23;;;2.00;99.90;;;;;;12496087;28;20255;-33
2020/12/05 20:31:31;;;;;;;31.25;18.33;;;2.00;99.90;;;;;;12509015;28;20459;-33
2020/12/05 20:37:33;;;;;;;29.60;16.88;;;2.00;99.90;;;;;;12483374;28;20067;-33
2020/12/05 20:43:34;;;;;;;26.13;15.80;;;2.10;99.90;;;;;;12514644;28;20052;-33
2020/12/05 20:49:38;;;;;;;28.73;16.40;;;2.10;99.90;;;;;;12501639;28;20056;-33
2020/12/05 20:55:43;;;;;;;26.33;16.27;;;2.20;99.90;;;;;;12501739;28;20577;-33
2020/12/05 21:01:45;;;;;;;25.92;15.55;;;2.30;99.90;;;;;;12501082;28;20483;-33
2020/12/05 21:07:46;;;;;;;27.40;15.95;;;2.30;99.90;;;;;;12516765;28;20040;-33
2020/12/05 21:13:47;;;;;;;27.13;16.35;;;2.30;99.90;;;;;;12505990;28;20084;-33
2020/12/05 21:19:49;;;;;;;28.15;16.17;;;2.40;99.90;;;;;;12520420;28;20136;-33
2020/12/05 21:25:50;;;;;;;26.90;15.50;;;2.40;99.90;;;;;;12506928;28;21015;-33
2020/12/05 21:31:52;;;;;;;23.83;13.95;;;2.40;99.90;;;;;;12519985;28;20829;-33
2020/12/05 21:37:53;;;;;;;26.88;16.60;;;2.50;99.90;;;;;;12491895;28;20090;-33
2020/12/05 21:43:54;;;;;;;27.73;16.45;;;2.40;99.90;;;;;;12495398;28;20103;-33
2020/12/05 21:50:01;;;;;;;25.77;16.20;;;2.30;99.90;;;;;;12510209;28;20076;-33
2020/12/05 21:56:04;;;;;;;25.23;16.25;;;2.20;99.90;;;;;;12513449;28;20057;-33
2020/12/05 22:02:05;;;;;;;33.25;18.25;;;2.10;99.90;;;;;;12489903;28;20049;-33
2020/12/05 22:08:07;;;;;;;28.00;16.58;;;2.20;99.90;;;;;;12529149;28;20092;-33
2020/12/05 22:14:09;;;;;;;26.90;15.13;;;2.20;99.90;;;;;;12507106;28;20084;-33
2020/12/05 22:20:10;;;;;;;32.55;19.65;;;2.20;99.90;;;;;;12535682;28;20090;-33
2020/12/05 22:26:11;;;;;;;34.30;19.55;;;2.10;99.90;;;;;;12509344;28;20068;-33
2020/12/05 22:32:13;;;;;;;32.85;18.42;;;2.10;99.90;;;;;;12512325;28;20604;-33
2020/12/05 22:38:14;;;;;;;29.27;17.83;;;2.00;99.90;;;;;;12514215;28;20065;-33
2020/12/05 22:44:16;;;;;;;29.70;17.83;;;2.00;99.90;;;;;;12519169;28;20143;-33
2020/12/05 22:50:20;;;;;;;31.63;18.63;;;2.00;99.90;;;;;;12506648;28;20083;-33
2020/12/05 22:56:21;;;;;;;32.28;18.58;;;2.00;99.90;;;;;;12512478;28;20049;-33
2020/12/05 23:02:22;;;;;;;34.28;18.88;;;2.00;99.90;;;;;;12515735;28;20084;-33
2020/12/05 23:08:24;;;;;;;28.55;17.45;;;2.00;99.90;;;;;;12512192;28;20076;-33
2020/12/05 23:14:25;;;;;;;29.95;18.23;;;2.10;99.90;;;;;;12525934;28;20132;-33
2020/12/05 23:20:26;;;;;;;29.80;17.08;;;2.00;99.90;;;;;;12512226;28;20136;-33
2020/12/05 23:26:30;;;;;;;28.30;17.10;;;2.00;99.90;;;;;;12509719;28;20461;-33
2020/12/05 23:32:41;;;;;;;26.73;16.10;;;2.10;99.90;;;;;;12508295;28;20155;-33
2020/12/05 23:38:42;;;;;;;28.52;17.10;;;2.10;99.90;;;;;;12499262;28;20059;-33
2020/12/05 23:44:44;;;;;;;29.63;16.27;;;2.00;99.90;;;;;;12505650;28;20049;-33
2020/12/05 23:50:45;;;;;;;29.88;16.83;;;2.10;99.90;;;;;;12503233;28;20072;-33
2020/12/05 23:56:47;;;;;;;26.65;17.23;;;1.90;99.90;;;;;;12502501;28;20068;-33
